Time;durP1;ratioP1;P1;durP2;ratioP2;P2;SDS_P1;SDS_P2;PMS_P1;PMS_P2;Temp;Humidity;BMP_temperature;BMP_pressure;BME280_temperature;BME280_humidity;BME280_pressure;Samples;Min_cycle;Max_cycle;Signal;HPM_P1;HPM_P2
2023/03/19 00:00:42;;;;;;;29.60;22.73;;;8.90;95.60;;;;;;6239359;22;20854;-78
2023/03/19 00:03:09;;;;;;;26.95;21.20;;;8.80;96.80;;;;;;6239776;23;20464;-79
2023/03/19 00:05:37;;;;;;;27.27;20.80;;;8.70;96.30;;;;;;6238945;22;20440;-79
2023/03/19 00:08:04;;;;;;;26.92;20.60;;;8.70;96.50;;;;;;6239652;23;20365;-78
2023/03/19 00:10:31;;;;;;;25.63;20.27;;;8.60;96.50;;;;;;6239247;22;20361;-78
2023/03/19 00:12:58;;;;;;;27.45;21.05;;;8.60;96.20;;;;;;6240454;23;20357;-79
2023/03/19 00:15:25;;;;;;;26.25;20.52;;;8.60;96.20;;;;;;6240479;23;20771;-79
2023/03/19 00:17:53;;;;;;;27.73;20.70;;;8.60;96.00;;;;;;6239141;22;20460;-79
2023/03/19 00:20:21;;;;;;;27.45;21.05;;;8.60;95.90;;;;;;6240549;23;20835;-78
2023/03/19 00:22:48;;;;;;;26.35;20.80;;;8.70;96.00;;;;;;6239299;22;20384;-78
2023/03/19 00:25:14;;;;;;;26.08;20.42;;;8.70;96.00;;;;;;6240600;23;20439;-78
2023/03/19 00:27:43;;;;;;;27.20;21.60;;;8.70;95.80;;;;;;6239059;22;20430;-78
2023/03/19 00:30:11;;;;;;;27.20;20.45;;;8.60;95.80;;;;;;6240154;23;20435;-78
2023/03/19 00:32:38;;;;;;;26.05;19.10;;;8.60;95.70;;;;;;6239869;22;20444;-79
2023/03/19 00:35:05;;;;;;;25.48;19.27;;;8.70;95.90;;;;;;6242336;22;20368;-79
2023/03/19 00:37:33;;;;;;;25.17;19.83;;;8.60;95.50;;;;;;6239248;22;20443;-79
2023/03/19 00:40:00;;;;;;;26.63;20.35;;;8.60;96.00;;;;;;6240379;23;20424;-79
2023/03/19 00:42:28;;;;;;;25.27;19.45;;;8.60;95.80;;;;;;6239789;23;20377;-78
2023/03/19 00:44:55;;;;;;;25.27;19.77;;;8.60;95.70;;;;;;6239838;22;20387;-79
2023/03/19 00:47:23;;;;;;;25.55;20.30;;;8.60;95.40;;;;;;6239797;23;20423;-78
2023/03/19 00:49:50;;;;;;;25.33;20.05;;;8.60;95.60;;;;;;6239294;22;20427;-79
2023/03/19 00:52:17;;;;;;;23.98;19.45;;;8.60;96.40;;;;;;6240106;23;20368;-78
2023/03/19 00:54:43;;;;;;;26.33;20.33;;;8.60;96.00;;;;;;6239763;22;20704;-79
2023/03/19 00:57:10;;;;;;;25.20;19.70;;;8.60;96.00;;;;;;6240021;23;20444;-79
2023/03/19 00:59:37;;;;;;;23.58;18.92;;;8.60;96.10;;;;;;6239852;22;20369;-79
2023/03/19 01:02:04;;;;;;;24.70;19.45;;;8.50;96.10;;;;;;6239904;23;20377;-79
2023/03/19 01:04:31;;;;;;;24.15;19.10;;;8.60;96.20;;;;;;6239819;23;20365;-79
2023/03/19 01:06:59;;;;;;;23.13;19.13;;;8.50;95.80;;;;;;6241700;22;20419;-78
2023/03/19 01:09:29;;;;;;;27.07;21.13;;;8.60;95.70;;;;;;6241593;23;20448;-77
2023/03/19 01:11:56;;;;;;;25.95;19.92;;;8.60;96.30;;;;;;6240746;22;20688;-77
2023/03/19 01:14:23;;;;;;;26.58;21.20;;;8.60;96.50;;;;;;6241310;23;20397;-78
2023/03/19 01:16:50;;;;;;;22.67;19.40;;;8.60;96.70;;;;;;6242064;23;20404;-77
2023/03/19 01:19:18;;;;;;;24.65;19.92;;;8.60;96.90;;;;;;6240127;22;20423;-77
2023/03/19 01:21:45;;;;;;;25.38;20.48;;;8.60;96.80;;;;;;6242194;23;20427;-77
2023/03/19 01:24:12;;;;;;;24.67;19.67;;;8.60;96.80;;;;;;6239979;22;20426;-77
2023/03/19 01:26:40;;;;;;;27.15;20.30;;;8.60;96.90;;;;;;6242128;23;20372;-77
2023/03/19 01:29:08;;;;;;;25.50;21.23;;;8.60;97.20;;;;;;6240640;22;20373;-77
2023/03/19 01:31:36;;;;;;;27.43;21.40;;;8.60;97.30;;;;;;6243203;22;20900;-77
2023/03/19 01:34:03;;;;;;;26.63;21.00;;;8.60;97.40;;;;;;6239902;22;20482;-78
2023/03/19 01:36:30;;;;;;;26.52;20.55;;;8.50;98.40;;;;;;6241875;23;20419;-78
2023/03/19 01:38:57;;;;;;;25.67;19.20;;;8.50;98.80;;;;;;6241142;23;20393;-77
2023/03/19 01:41:24;;;;;;;24.02;18.90;;;8.40;98.80;;;;;;6240770;22;20377;-78
2023/03/19 01:43:51;;;;;;;23.83;19.20;;;8.40;98.90;;;;;;6239855;23;20757;-78
2023/03/19 01:46:33;;;;;;;23.40;18.40;;;8.40;99.50;;;;;;6240559;22;20703;-78
2023/03/19 01:49:05;;;;;;;22.63;18.25;;;8.30;99.50;;;;;;6241305;23;20423;-78
2023/03/19 01:51:38;;;;;;;23.87;18.67;;;8.30;99.90;;;;;;6240774;22;20368;-78
2023/03/19 01:54:11;;;;;;;21.88;17.83;;;8.20;99.90;;;;;;6241498;23;20434;-78
2023/03/19 01:56:42;;;;;;;23.92;19.17;;;8.20;99.90;;;;;;6241334;22;20368;-78
2023/03/19 01:59:19;;;;;;;24.15;19.58;;;8.20;99.90;;;;;;6241689;23;20376;-78
2023/03/19 02:01:55;;;;;;;22.48;18.27;;;8.20;99.70;;;;;;6238614;23;20396;-77
2023/03/19 02:04:25;;;;;;;26.95;20.10;;;8.20;99.60;;;;;;6178685;23;20390;-78
2023/03/19 02:06:55;;;;;;;27.45;21.33;;;8.30;99.90;;;;;;6178084;23;20375;-78
2023/03/19 02:09:24;;;;;;;23.92;19.73;;;8.20;99.90;;;;;;6179856;23;20826;-79
2023/03/19 02:11:53;;;;;;;23.02;18.23;;;8.20;99.90;;;;;;6181375;23;20388;-78
2023/03/19 02:14:20;;;;;;;22.33;17.70;;;8.10;99.90;;;;;;6180020;23;20384;-79
2023/03/19 02:16:48;;;;;;;21.88;18.10;;;8.00;99.90;;;;;;6179123;23;20422;-78
2023/03/19 02:19:25;;;;;;;22.10;17.30;;;8.00;99.90;;;;;;6182301;23;20427;-78
2023/03/19 02:21:54;;;;;;;22.60;17.97;;;8.00;99.90;;;;;;6180180;23;20455;-79
2023/03/19 02:24:37;;;;;;;22.77;17.97;;;8.00;99.90;;;;;;6180845;23;20427;-78
2023/03/19 02:27:08;;;;;;;22.95;18.88;;;8.00;99.90;;;;;;6180106;23;20388;-78
2023/03/19 02:29:35;;;;;;;23.75;18.83;;;8.00;99.90;;;;;;6182644;23;20715;-78
2023/03/19 02:32:02;;;;;;;21.43;18.27;;;8.00;99.90;;;;;;6180106;23;20447;-78
2023/03/19 02:34:38;;;;;;;21.00;17.17;;;7.90;99.90;;;;;;6180658;23;20381;-78
2023/03/19 02:37:13;;;;;;;21.77;18.10;;;7.90;99.90;;;;;;6179183;23;20427;-79
2023/03/19 02:39:55;;;;;;;24.00;18.37;;;7.90;99.90;;;;;;6179781;23;20481;-78
2023/03/19 02:42:26;;;;;;;24.88;19.65;;;7.80;99.90;;;;;;6179219;22;20377;-78
2023/03/19 02:44:52;;;;;;;22.98;18.95;;;7.90;99.90;;;;;;6180141;23;20552;-78
2023/03/19 02:47:22;;;;;;;22.98;18.00;;;7.90;99.90;;;;;;6153933;22;22315;-78
2023/03/19 02:49:49;;;;;;;21.48;18.40;;;7.90;99.90;;;;;;6180165;23;20403;-78
2023/03/19 02:52:17;;;;;;;23.13;18.70;;;7.90;99.90;;;;;;6179449;23;20395;-78
2023/03/19 02:54:43;;;;;;;24.75;20.45;;;7.90;99.90;;;;;;6180440;23;20372;-77
2023/03/19 02:57:11;;;;;;;28.08;22.42;;;7.90;99.90;;;;;;6179384;23;20396;-78
2023/03/19 02:59:38;;;;;;;24.50;19.13;;;7.80;99.90;;;;;;6179934;23;20373;-77
2023/03/19 03:02:05;;;;;;;24.48;18.75;;;7.80;99.90;;;;;;6179173;23;20388;-79
2023/03/19 03:04:35;;;;;;;24.27;20.13;;;7.80;99.90;;;;;;6180121;23;20377;-78
2023/03/19 03:07:05;;;;;;;23.63;19.23;;;7.70;99.90;;;;;;6180351;23;20419;-77
2023/03/19 03:09:32;;;;;;;24.80;20.35;;;7.70;99.90;;;;;;6167173;23;20373;-78
2023/03/19 03:11:59;;;;;;;26.20;20.23;;;7.80;99.90;;;;;;6180236;23;20700;-77
2023/03/19 03:14:26;;;;;;;22.95;18.75;;;7.80;99.90;;;;;;6178840;23;20404;-79
2023/03/19 03:16:53;;;;;;;24.42;19.52;;;7.80;99.90;;;;;;6180215;23;20399;-78
2023/03/19 03:19:20;;;;;;;22.80;18.95;;;7.90;99.90;;;;;;6180797;23;20403;-78
2023/03/19 03:21:47;;;;;;;22.70;19.17;;;7.90;99.90;;;;;;6180334;23;20411;-78
2023/03/19 03:24:14;;;;;;;24.10;19.73;;;7.90;99.90;;;;;;6179431;23;20892;-78
2023/03/19 03:26:41;;;;;;;22.50;19.45;;;7.90;99.90;;;;;;6180188;23;20380;-78
2023/03/19 03:29:08;;;;;;;23.23;18.63;;;7.90;99.90;;;;;;6178871;23;20373;-78
2023/03/19 03:31:35;;;;;;;24.43;20.00;;;7.90;99.90;;;;;;6180148;23;20372;-78
2023/03/19 03:34:02;;;;;;;24.70;19.73;;;7.90;99.90;;;;;;6180487;23;20830;-77
2023/03/19 03:36:29;;;;;;;26.00;19.05;;;7.90;99.90;;;;;;6179605;23;20383;-78
2023/03/19 03:38:56;;;;;;;22.92;19.23;;;7.90;99.90;;;;;;6180577;23;20373;-78
2023/03/19 03:41:23;;;;;;;22.48;18.77;;;7.90;99.90;;;;;;6178614;23;20395;-78
2023/03/19 03:43:50;;;;;;;22.25;18.08;;;7.90;99.90;;;;;;6179960;23;20388;-78
2023/03/19 03:46:17;;;;;;;23.10;18.50;;;7.90;99.90;;;;;;6179278;23;20368;-77
2023/03/19 03:48:44;;;;;;;23.10;18.83;;;7.90;99.90;;;;;;6179803;23;20377;-77
2023/03/19 03:51:11;;;;;;;21.77;17.52;;;8.00;99.90;;;;;;6179875;23;20407;-80
2023/03/19 03:53:38;;;;;;;22.98;17.80;;;7.90;99.90;;;;;;6182007;22;20368;-80
2023/03/19 03:56:05;;;;;;;22.48;18.00;;;8.00;99.90;;;;;;6180677;23;20399;-80
2023/03/19 03:58:32;;;;;;;23.00;18.77;;;8.00;99.90;;;;;;6179727;23;20369;-78
2023/03/19 04:00:58;;;;;;;22.80;18.38;;;7.90;99.90;;;;;;6180211;23;20383;-78
2023/03/19 04:03:25;;;;;;;31.88;23.08;;;7.90;99.90;;;;;;6179992;22;20766;-78
2023/03/19 04:05:52;;;;;;;24.73;20.60;;;7.90;99.90;;;;;;6179479;23;20419;-77
2023/03/19 04:08:19;;;;;;;25.10;19.88;;;7.90;99.90;;;;;;6178687;22;20713;-78
2023/03/19 04:10:46;;;;;;;23.52;19.08;;;7.90;99.90;;;;;;6180073;23;20377;-78
2023/03/19 04:13:13;;;;;;;24.37;20.03;;;7.80;99.90;;;;;;6178479;23;20431;-78
2023/03/19 04:15:43;;;;;;;24.27;20.05;;;7.70;99.90;;;;;;6181571;23;20388;-79
2023/03/19 04:18:10;;;;;;;27.02;20.20;;;7.70;99.90;;;;;;6179179;22;20854;-79
2023/03/19 04:20:37;;;;;;;25.95;20.45;;;7.60;99.90;;;;;;6181414;23;20447;-79
2023/03/19 04:23:05;;;;;;;22.90;18.07;;;7.60;99.90;;;;;;6180117;23;20376;-78
2023/03/19 04:25:32;;;;;;;23.58;19.77;;;7.50;99.90;;;;;;6180452;23;20395;-78
2023/03/19 04:27:59;;;;;;;25.98;21.20;;;7.50;99.90;;;;;;6181624;23;20695;-78
2023/03/19 04:30:26;;;;;;;24.33;19.00;;;7.50;99.90;;;;;;6178861;23;20392;-78
2023/03/19 04:32:53;;;;;;;28.30;23.17;;;7.50;99.90;;;;;;6180241;23;20376;-78
2023/03/19 04:35:21;;;;;;;23.55;19.55;;;7.50;99.90;;;;;;6178335;23;20873;-78
2023/03/19 04:37:48;;;;;;;24.98;20.23;;;7.40;99.90;;;;;;6179817;23;20376;-78
2023/03/19 04:40:15;;;;;;;24.45;19.15;;;7.50;99.90;;;;;;6179120;23;20395;-78
2023/03/19 04:42:43;;;;;;;23.73;19.58;;;7.50;99.90;;;;;;6183435;23;20376;-78
2023/03/19 04:45:10;;;;;;;23.42;19.45;;;7.50;99.90;;;;;;6181169;23;20376;-78
2023/03/19 04:47:38;;;;;;;24.05;20.38;;;7.50;99.90;;;;;;6180850;22;20368;-78
2023/03/19 04:50:06;;;;;;;25.67;19.67;;;7.60;99.90;;;;;;6181217;23;20758;-79
2023/03/19 04:52:34;;;;;;;24.77;20.52;;;7.50;99.90;;;;;;6180538;22;20403;-78
2023/03/19 04:55:01;;;;;;;24.10;19.48;;;7.50;99.90;;;;;;6181413;23;20480;-78
2023/03/19 04:57:28;;;;;;;25.17;20.17;;;7.50;99.90;;;;;;6180550;23;20372;-78
2023/03/19 04:59:55;;;;;;;27.48;22.35;;;7.50;99.90;;;;;;6181364;23;20893;-79
2023/03/19 05:02:22;;;;;;;24.17;19.33;;;7.50;99.90;;;;;;6180335;23;20385;-78
2023/03/19 05:04:49;;;;;;;23.92;19.35;;;7.50;99.90;;;;;;6181062;23;20758;-78
2023/03/19 05:07:16;;;;;;;22.13;18.30;;;7.60;99.90;;;;;;6180856;22;20723;-78
2023/03/19 05:09:45;;;;;;;23.67;19.85;;;7.60;99.90;;;;;;6182783;23;20404;-78
2023/03/19 05:12:12;;;;;;;26.40;22.48;;;7.60;99.90;;;;;;6181436;23;20374;-78
2023/03/19 05:14:39;;;;;;;25.00;20.35;;;7.60;99.90;;;;;;6179980;23;20385;-78
2023/03/19 05:17:06;;;;;;;23.35;19.48;;;7.60;99.90;;;;;;6182838;23;20770;-79
2023/03/19 05:19:33;;;;;;;21.50;17.85;;;7.60;99.90;;;;;;6179932;23;20414;-78
2023/03/19 05:22:00;;;;;;;22.70;19.25;;;7.60;99.90;;;;;;6181404;23;20380;-78
2023/03/19 05:24:26;;;;;;;26.40;21.83;;;7.70;99.90;;;;;;6180425;23;20414;-78
2023/03/19 05:26:53;;;;;;;23.30;19.48;;;7.70;99.90;;;;;;6182207;23;20446;-78
2023/03/19 05:29:20;;;;;;;25.40;20.30;;;7.70;99.90;;;;;;6182519;23;20369;-78
2023/03/19 05:31:48;;;;;;;24.98;20.67;;;7.70;99.90;;;;;;6181112;23;20388;-78
2023/03/19 05:34:14;;;;;;;24.25;19.67;;;7.70;99.90;;;;;;6181152;23;20384;-78
2023/03/19 05:36:41;;;;;;;23.98;20.33;;;7.80;99.90;;;;;;6179690;23;20388;-78
2023/03/19 05:39:08;;;;;;;23.35;19.95;;;7.80;99.90;;;;;;6181063;23;20373;-78
2023/03/19 05:41:35;;;;;;;23.40;19.33;;;7.80;99.90;;;;;;6179830;23;20368;-78
2023/03/19 05:44:03;;;;;;;23.10;18.43;;;7.80;99.90;;;;;;6181011;23;20424;-78
2023/03/19 05:46:31;;;;;;;21.35;16.85;;;7.80;99.90;;;;;;6181328;23;20714;-78
2023/03/19 05:48:58;;;;;;;19.80;16.37;;;7.80;99.90;;;;;;6181154;23;20392;-78
2023/03/19 05:51:25;;;;;;;21.30;16.55;;;7.80;99.90;;;;;;6179984;23;20435;-78
2023/03/19 05:53:52;;;;;;;20.63;17.60;;;7.90;99.90;;;;;;6180965;23;20684;-78
2023/03/19 05:56:18;;;;;;;18.73;15.90;;;7.90;99.90;;;;;;6182668;23;20419;-78
2023/03/19 05:58:45;;;;;;;19.52;16.08;;;7.90;99.90;;;;;;6181718;23;20900;-78
2023/03/19 06:01:12;;;;;;;18.40;16.27;;;8.00;99.90;;;;;;6181048;23;20392;-78
2023/03/19 06:03:39;;;;;;;21.30;17.53;;;8.00;99.90;;;;;;6179602;23;20384;-78
2023/03/19 06:06:06;;;;;;;20.92;17.10;;;8.10;99.90;;;;;;6181170;23;20376;-78
2023/03/19 06:08:33;;;;;;;19.85;16.60;;;8.10;99.90;;;;;;6179859;23;20415;-78
2023/03/19 06:11:00;;;;;;;23.00;18.48;;;8.20;99.90;;;;;;6182154;23;20459;-79
2023/03/19 06:13:27;;;;;;;21.98;18.02;;;8.20;99.90;;;;;;6180256;23;20398;-79
2023/03/19 06:15:54;;;;;;;23.83;18.73;;;8.30;99.90;;;;;;6180411;23;20767;-79
2023/03/19 06:18:21;;;;;;;22.70;17.90;;;8.30;99.90;;;;;;6180567;23;20924;-78
2023/03/19 06:20:48;;;;;;;19.85;16.13;;;8.40;99.90;;;;;;6178954;23;20404;-78
2023/03/19 06:23:15;;;;;;;19.50;15.73;;;8.40;99.90;;;;;;6180804;23;20380;-78
2023/03/19 06:25:42;;;;;;;18.50;14.73;;;8.40;99.90;;;;;;6179563;23;20399;-78
2023/03/19 06:28:09;;;;;;;16.93;14.50;;;8.40;99.90;;;;;;6180601;23;20451;-78
2023/03/19 06:30:36;;;;;;;19.20;16.45;;;8.40;99.90;;;;;;6179408;22;20426;-79
2023/03/19 06:33:03;;;;;;;17.90;15.27;;;8.40;99.90;;;;;;6181197;23;20369;-79
2023/03/19 06:35:30;;;;;;;17.65;15.07;;;8.40;99.90;;;;;;6179157;23;21022;-79
2023/03/19 06:37:57;;;;;;;19.88;16.27;;;8.40;99.90;;;;;;6180098;23;20834;-79
2023/03/19 06:40:24;;;;;;;19.85;16.73;;;8.40;99.90;;;;;;6180617;23;20422;-79
2023/03/19 06:42:51;;;;;;;21.80;17.75;;;8.40;99.90;;;;;;6180036;23;20371;-79
2023/03/19 06:45:19;;;;;;;21.08;18.38;;;8.40;99.90;;;;;;6182144;22;20380;-78
2023/03/19 06:47:46;;;;;;;21.30;17.70;;;8.50;99.90;;;;;;6181243;23;20873;-78
2023/03/19 06:50:18;;;;;;;19.17;16.27;;;8.50;99.90;;;;;;6180537;23;20372;-79
2023/03/19 06:52:45;;;;;;;18.33;15.77;;;8.50;99.90;;;;;;6181303;23;20428;-79
2023/03/19 06:55:12;;;;;;;19.13;16.08;;;8.60;99.90;;;;;;6180119;23;20848;-79
2023/03/19 06:57:39;;;;;;;19.50;16.30;;;8.60;99.90;;;;;;6179999;23;20447;-79
2023/03/19 07:00:09;;;;;;;25.17;20.80;;;8.70;99.90;;;;;;6181733;23;20380;-77
2023/03/19 07:02:36;;;;;;;26.23;23.23;;;8.70;99.90;;;;;;6179010;23;20433;-78
2023/03/19 07:05:04;;;;;;;25.35;20.30;;;8.80;99.90;;;;;;6179964;23;20372;-78
2023/03/19 07:07:31;;;;;;;25.23;21.98;;;8.90;99.90;;;;;;6179594;23;20800;-78
2023/03/19 07:09:57;;;;;;;22.15;18.27;;;8.90;99.90;;;;;;6180038;23;20873;-79
2023/03/19 07:12:27;;;;;;;26.63;22.33;;;9.00;99.90;;;;;;6180547;23;20404;-79
2023/03/19 07:14:55;;;;;;;22.35;19.20;;;9.10;99.90;;;;;;6179055;23;20368;-78
2023/03/19 07:17:22;;;;;;;20.30;17.77;;;9.10;99.90;;;;;;6179919;23;20380;-78
2023/03/19 07:19:50;;;;;;;20.42;17.73;;;9.10;99.90;;;;;;6178882;23;20379;-79
2023/03/19 07:22:17;;;;;;;23.25;18.90;;;9.20;99.90;;;;;;6180336;23;20424;-78
2023/03/19 07:24:44;;;;;;;22.50;19.00;;;9.20;99.90;;;;;;6179534;23;20372;-78
2023/03/19 07:27:11;;;;;;;22.35;19.38;;;9.20;99.90;;;;;;6180469;23;20386;-79
2023/03/19 07:29:38;;;;;;;19.85;17.63;;;9.10;99.90;;;;;;6178947;23;20374;-79
2023/03/19 07:32:05;;;;;;;23.15;18.17;;;9.20;99.90;;;;;;6180282;23;20380;-79
2023/03/19 07:34:32;;;;;;;20.95;17.90;;;9.20;99.90;;;;;;6180041;23;20388;-79
2023/03/19 07:37:00;;;;;;;20.53;18.03;;;9.20;99.90;;;;;;6180048;23;20368;-78
2023/03/19 07:39:27;;;;;;;19.52;16.30;;;9.30;99.90;;;;;;6180000;23;20379;-78
2023/03/19 07:41:54;;;;;;;17.60;15.48;;;9.30;99.90;;;;;;6179457;23;20372;-78
2023/03/19 07:44:21;;;;;;;19.02;16.88;;;9.40;99.90;;;;;;6181642;23;20766;-79
2023/03/19 07:46:48;;;;;;;19.63;16.63;;;9.40;99.90;;;;;;6179565;23;20368;-78
2023/03/19 07:49:15;;;;;;;20.08;17.60;;;9.50;99.90;;;;;;6165754;23;20458;-79
2023/03/19 07:51:42;;;;;;;21.23;18.33;;;9.50;99.90;;;;;;6179063;22;20717;-78
2023/03/19 07:54:09;;;;;;;24.17;19.80;;;9.60;99.60;;;;;;6180171;23;20373;-78
2023/03/19 07:56:36;;;;;;;27.20;22.33;;;9.60;99.20;;;;;;6181199;23;20459;-78
2023/03/19 07:59:02;;;;;;;27.30;22.15;;;9.60;99.30;;;;;;6179185;23;20373;-78
2023/03/19 08:01:29;;;;;;;26.15;21.58;;;9.70;99.80;;;;;;6181141;23;20916;-79
2023/03/19 08:03:56;;;;;;;20.90;18.17;;;9.70;99.90;;;;;;6178440;23;20748;-79
2023/03/19 08:06:23;;;;;;;23.92;19.48;;;9.70;99.90;;;;;;6179889;23;20738;-79
2023/03/19 08:08:50;;;;;;;19.40;16.67;;;9.80;99.90;;;;;;6179232;23;20423;-79
2023/03/19 08:11:17;;;;;;;20.37;17.50;;;9.90;99.50;;;;;;6179829;23;20383;-78
2023/03/19 08:13:44;;;;;;;23.25;19.00;;;10.00;99.00;;;;;;6180377;22;20381;-80
2023/03/19 08:16:12;;;;;;;21.23;16.70;;;10.10;99.10;;;;;;6181365;23;20406;-78
2023/03/19 08:18:39;;;;;;;20.52;16.95;;;10.20;98.40;;;;;;6182353;23;20371;-78
2023/03/19 08:21:06;;;;;;;20.38;17.80;;;10.30;97.90;;;;;;6180954;23;20380;-78
2023/03/19 08:23:34;;;;;;;21.48;17.17;;;10.40;97.20;;;;;;6182054;23;20473;-79
2023/03/19 08:26:01;;;;;;;29.33;17.25;;;10.50;96.70;;;;;;6181500;23;20379;-79
2023/03/19 08:28:28;;;;;;;34.60;23.70;;;10.50;96.70;;;;;;6181667;23;20465;-79
2023/03/19 08:30:55;;;;;;;30.05;21.65;;;10.60;95.30;;;;;;6180980;23;20755;-78
2023/03/19 08:33:22;;;;;;;21.17;16.55;;;10.70;94.70;;;;;;6181605;23;20375;-78
2023/03/19 08:35:49;;;;;;;17.38;14.45;;;10.70;93.00;;;;;;6181123;23;20372;-79
2023/03/19 08:38:16;;;;;;;18.67;14.63;;;10.80;92.80;;;;;;6181441;23;20490;-79
2023/03/19 08:40:43;;;;;;;15.47;13.00;;;10.90;92.40;;;;;;6181836;23;20402;-79
2023/03/19 08:43:11;;;;;;;17.02;12.90;;;11.00;92.90;;;;;;6180578;23;20380;-79
2023/03/19 08:45:38;;;;;;;14.80;12.00;;;11.00;92.60;;;;;;6181830;23;20372;-79
2023/03/19 08:48:05;;;;;;;15.80;12.63;;;11.10;92.10;;;;;;6180660;23;20438;-79
2023/03/19 08:50:32;;;;;;;19.23;14.37;;;11.20;91.60;;;;;;6182347;23;20377;-79
2023/03/19 08:52:59;;;;;;;15.80;13.85;;;11.30;92.00;;;;;;6180834;23;20455;-79
2023/03/19 08:55:26;;;;;;;16.60;13.50;;;11.30;92.40;;;;;;6181648;23;20436;-78
2023/03/19 08:57:53;;;;;;;20.80;15.90;;;11.50;92.20;;;;;;6181964;23;20422;-78
2023/03/19 09:00:21;;;;;;;19.15;15.90;;;11.50;92.60;;;;;;6181860;23;20429;-78
2023/03/19 09:02:48;;;;;;;17.95;14.10;;;11.60;92.40;;;;;;6156644;23;20706;-78
2023/03/19 09:05:15;;;;;;;16.95;14.55;;;11.70;92.20;;;;;;6181142;23;20423;-79
2023/03/19 09:07:42;;;;;;;17.73;13.82;;;11.80;91.70;;;;;;6181935;23;20408;-79
2023/03/19 09:10:09;;;;;;;19.75;14.32;;;11.90;90.40;;;;;;6180325;23;20736;-80
2023/03/19 09:12:36;;;;;;;15.38;12.25;;;12.00;90.50;;;;;;6181398;23;20412;-79
2023/03/19 09:15:03;;;;;;;13.35;11.95;;;12.00;90.50;;;;;;6180751;23;20692;-79
2023/03/19 09:17:30;;;;;;;14.27;12.18;;;12.00;90.80;;;;;;6183331;22;20754;-79
2023/03/19 09:19:57;;;;;;;14.20;11.80;;;12.20;90.70;;;;;;6180205;23;20904;-79
2023/03/19 09:22:24;;;;;;;12.95;10.55;;;12.20;88.60;;;;;;6181354;23;20769;-79
2023/03/19 09:24:51;;;;;;;13.00;10.80;;;12.20;87.60;;;;;;6180263;23;20407;-80
2023/03/19 09:27:19;;;;;;;10.70;9.60;;;12.30;87.30;;;;;;6180999;23;20376;-79
2023/03/19 09:29:46;;;;;;;12.43;10.80;;;12.40;87.20;;;;;;6181112;23;20396;-78
2023/03/19 09:32:13;;;;;;;14.55;12.13;;;12.40;87.60;;;;;;6180268;23;20664;-79
2023/03/19 09:34:40;;;;;;;10.90;9.80;;;12.40;84.30;;;;;;6180772;23;20404;-79
2023/03/19 09:37:07;;;;;;;10.13;8.55;;;12.50;85.90;;;;;;6181667;23;20471;-78
2023/03/19 09:39:34;;;;;;;11.45;9.30;;;12.60;85.60;;;;;;6181052;23;20377;-79
2023/03/19 09:42:34;;;;;;;9.90;8.00;;;12.70;83.90;;;;;;6180188;23;20459;-78
2023/03/19 09:45:02;;;;;;;9.93;8.90;;;12.90;83.00;;;;;;6179682;23;20381;-78
2023/03/19 09:47:32;;;;;;;6.38;4.85;;;13.20;78.80;;;;;;6181029;23;20680;-79
2023/03/19 09:50:05;;;;;;;8.68;6.13;;;13.30;75.60;;;;;;6180728;23;20377;-78
2023/03/19 09:53:01;;;;;;;9.50;7.07;;;13.40;72.80;;;;;;6181053;23;20380;-78
2023/03/19 09:55:51;;;;;;;8.18;7.10;;;13.60;73.20;;;;;;6180615;23;20424;-78
2023/03/19 09:58:21;;;;;;;8.35;6.80;;;13.70;72.90;;;;;;6181402;23;20396;-78
2023/03/19 10:00:53;;;;;;;7.35;5.47;;;13.80;73.60;;;;;;6181207;23;20676;-78
2023/03/19 10:03:46;;;;;;;6.07;4.60;;;13.80;72.20;;;;;;6179490;23;20404;-78
2023/03/19 10:06:33;;;;;;;4.95;2.85;;;13.90;70.60;;;;;;6179467;23;20380;-78
2023/03/19 10:09:18;;;;;;;4.88;2.20;;;14.00;66.90;;;;;;6180786;23;20734;-79
2023/03/19 10:12:11;;;;;;;3.28;1.95;;;14.10;65.60;;;;;;6180147;23;20364;-79
2023/03/19 10:15:10;;;;;;;3.85;3.28;;;14.20;63.80;;;;;;6179961;23;20377;-78
2023/03/19 10:17:43;;;;;;;6.53;4.03;;;14.40;64.60;;;;;;6160231;23;20710;-78
2023/03/19 10:20:23;;;;;;;6.07;4.67;;;14.50;65.70;;;;;;6180377;23;20474;-78
2023/03/19 10:22:58;;;;;;;5.43;4.43;;;14.80;66.80;;;;;;6181795;23;20829;-78
2023/03/19 10:25:28;;;;;;;6.55;3.55;;;15.00;65.60;;;;;;6181958;23;20692;-78
2023/03/19 10:28:00;;;;;;;3.15;1.80;;;15.30;64.30;;;;;;6179843;23;20698;-78
2023/03/19 10:30:31;;;;;;;4.00;2.00;;;15.50;61.70;;;;;;6180813;23;20404;-77
2023/03/19 10:33:22;;;;;;;3.85;2.03;;;15.60;58.20;;;;;;6179658;23;20815;-77
2023/03/19 10:36:04;;;;;;;4.10;1.33;;;15.50;57.90;;;;;;6179357;23;20372;-78
2023/03/19 10:38:32;;;;;;;2.80;1.27;;;15.60;56.70;;;;;;6181419;23;20423;-78
2023/03/19 10:41:13;;;;;;;1.92;1.33;;;15.70;56.30;;;;;;6181160;23;20353;-78
2023/03/19 10:43:42;;;;;;;2.10;1.70;;;15.80;56.70;;;;;;6179202;23;20405;-79
2023/03/19 10:46:14;;;;;;;4.03;2.60;;;15.90;57.10;;;;;;6179534;23;20368;-78
2023/03/19 10:48:45;;;;;;;3.13;2.17;;;15.90;57.60;;;;;;6178403;23;20384;-77
2023/03/19 10:51:24;;;;;;;5.32;3.28;;;15.90;58.00;;;;;;6182139;23;20364;-79
2023/03/19 10:53:54;;;;;;;9.63;7.20;;;16.00;56.40;;;;;;6179383;23;20455;-78
2023/03/19 10:56:24;;;;;;;4.65;3.60;;;16.00;57.10;;;;;;6180386;23;20396;-78
2023/03/19 10:59:18;;;;;;;4.57;2.53;;;16.10;57.10;;;;;;6179139;23;20480;-78
2023/03/19 11:01:45;;;;;;;4.07;2.58;;;16.20;55.40;;;;;;6180250;23;20746;-79
2023/03/19 11:04:22;;;;;;;3.60;2.92;;;16.30;55.20;;;;;;6180306;23;20372;-78
2023/03/19 11:06:54;;;;;;;3.42;2.70;;;16.30;53.70;;;;;;6177711;23;20388;-79
2023/03/19 11:09:48;;;;;;;3.28;2.47;;;16.30;54.50;;;;;;6180278;23;20373;-79
2023/03/19 11:12:51;;;;;;;2.70;2.07;;;16.50;54.10;;;;;;6179231;23;20774;-78
2023/03/19 11:15:21;;;;;;;4.57;2.78;;;16.50;53.70;;;;;;6129161;23;20396;-78
2023/03/19 11:17:56;;;;;;;3.85;2.55;;;16.60;52.90;;;;;;6179919;23;20383;-78
2023/03/19 11:20:36;;;;;;;3.10;2.65;;;16.60;52.60;;;;;;6179585;23;20395;-78
2023/03/19 11:23:12;;;;;;;4.95;2.50;;;16.70;53.50;;;;;;6177952;23;20380;-78
2023/03/19 11:25:51;;;;;;;3.65;1.40;;;16.80;53.20;;;;;;6168430;23;20400;-79
2023/03/19 11:28:25;;;;;;;2.58;1.45;;;16.80;51.00;;;;;;6178195;23;20380;-79
2023/03/19 11:31:10;;;;;;;3.03;1.85;;;16.80;52.40;;;;;;6178642;23;20415;-78
2023/03/19 11:33:50;;;;;;;3.75;2.08;;;16.90;51.40;;;;;;6177900;23;20380;-78
2023/03/19 11:36:36;;;;;;;3.72;2.42;;;17.00;51.50;;;;;;6179102;23;20396;-78
2023/03/19 11:39:40;;;;;;;6.13;4.27;;;17.10;51.60;;;;;;6179801;23;20403;-78
2023/03/19 11:42:39;;;;;;;3.83;1.73;;;17.00;50.70;;;;;;6177449;23;20407;-78
2023/03/19 11:45:21;;;;;;;4.15;1.63;;;16.90;50.50;;;;;;6172099;23;20372;-80
2023/03/19 11:48:12;;;;;;;6.43;3.53;;;16.90;50.30;;;;;;6178046;23;20380;-79
2023/03/19 11:51:04;;;;;;;16.80;10.98;;;16.80;50.00;;;;;;6179514;23;20376;-79
2023/03/19 11:53:44;;;;;;;16.25;11.88;;;16.80;49.10;;;;;;6159469;23;20447;-78
2023/03/19 11:56:31;;;;;;;5.07;3.67;;;16.60;49.60;;;;;;6177883;23;20376;-78
2023/03/19 11:59:25;;;;;;;3.80;3.28;;;16.50;49.20;;;;;;6176504;23;20434;-78
2023/03/19 12:01:59;;;;;;;11.85;8.63;;;16.60;50.20;;;;;;6179852;23;21221;-78
2023/03/19 12:04:40;;;;;;;6.13;3.80;;;16.50;50.20;;;;;;6178032;23;20411;-78
2023/03/19 12:07:29;;;;;;;6.72;6.03;;;16.60;50.50;;;;;;6178248;23;20365;-78
2023/03/19 12:10:16;;;;;;;7.97;5.97;;;16.50;48.80;;;;;;6177553;23;20464;-78
2023/03/19 12:12:53;;;;;;;7.53;5.70;;;16.40;48.50;;;;;;6177829;23;20427;-78
2023/03/19 12:16:09;;;;;;;7.83;5.67;;;16.30;49.20;;;;;;6177741;23;20482;-78
2023/03/19 12:19:18;;;;;;;8.18;7.03;;;16.20;50.20;;;;;;6083124;23;20396;-78
2023/03/19 12:22:12;;;;;;;7.05;5.80;;;16.20;49.10;;;;;;6160075;23;20372;-79
2023/03/19 12:24:41;;;;;;;7.07;5.47;;;15.90;49.00;;;;;;6160740;23;20380;-78
2023/03/19 12:27:29;;;;;;;7.35;5.78;;;15.80;50.50;;;;;;6175194;23;20434;-78
2023/03/19 12:30:12;;;;;;;7.35;5.60;;;15.70;50.30;;;;;;6153485;23;20376;-78
2023/03/19 12:32:53;;;;;;;9.70;7.03;;;15.60;51.60;;;;;;6175913;23;20373;-77
2023/03/19 12:35:32;;;;;;;8.05;6.30;;;15.60;50.60;;;;;;6177968;23;20769;-77
2023/03/19 12:38:28;;;;;;;10.10;7.53;;;15.50;51.60;;;;;;6177098;23;20403;-78
2023/03/19 12:41:02;;;;;;;8.02;5.82;;;15.50;50.40;;;;;;6176917;23;20386;-77
2023/03/19 12:43:52;;;;;;;5.90;4.85;;;15.40;51.60;;;;;;6178514;23;20381;-78
2023/03/19 12:46:27;;;;;;;8.05;5.32;;;15.50;52.20;;;;;;6177465;23;20660;-78
2023/03/19 12:49:13;;;;;;;6.15;5.35;;;15.50;52.20;;;;;;6180184;23;20382;-78
2023/03/19 12:51:45;;;;;;;8.40;6.22;;;15.50;52.40;;;;;;6174412;23;20583;-78
2023/03/19 12:54:25;;;;;;;7.28;6.03;;;15.50;52.30;;;;;;6177290;23;20731;-78
2023/03/19 12:57:14;;;;;;;6.78;5.78;;;15.50;52.30;;;;;;6152537;23;20372;-78